sensor_id;sensor_type;location;lat;lon;timestamp;P1;durP1;ratioP1;P2;durP2;ratioP2
76640;SDS011;65538;50.798;6.064;2023-06-22T00:00:16;8.87;;;6.13;;
76640;SDS011;65538;50.798;6.064;2023-06-22T00:02:41;7.57;;;5.50;;
76640;SDS011;65538;50.798;6.064;2023-06-22T00:05:06;7.53;;;5.70;;
76640;SDS011;65538;50.798;6.064;2023-06-22T00:07:32;9.75;;;5.70;;
76640;SDS011;65538;50.798;6.064;2023-06-22T00:09:57;8.70;;;5.90;;
76640;SDS011;65538;50.798;6.064;2023-06-22T00:12:22;8.77;;;6.40;;
76640;SDS011;65538;50.798;6.064;2023-06-22T00:14:47;9.33;;;6.30;;
76640;SDS011;65538;50.798;6.064;2023-06-22T00:17:12;8.43;;;5.53;;
76640;SDS011;65538;50.798;6.064;2023-06-22T00:19:38;6.90;;;5.73;;
76640;SDS011;65538;50.798;6.064;2023-06-22T00:22:05;9.00;;;6.15;;
76640;SDS011;65538;50.798;6.064;2023-06-22T00:24:30;10.63;;;6.80;;
76640;SDS011;65538;50.798;6.064;2023-06-22T00:26:55;9.40;;;6.53;;
76640;SDS011;65538;50.798;6.064;2023-06-22T00:29:21;7.87;;;6.23;;
76640;SDS011;65538;50.798;6.064;2023-06-22T00:31:46;8.43;;;6.00;;
76640;SDS011;65538;50.798;6.064;2023-06-22T00:34:11;9.63;;;5.90;;
76640;SDS011;65538;50.798;6.064;2023-06-22T00:36:36;9.40;;;6.43;;
76640;SDS011;65538;50.798;6.064;2023-06-22T00:39:02;9.83;;;6.73;;
76640;SDS011;65538;50.798;6.064;2023-06-22T00:41:27;9.30;;;6.00;;
76640;SDS011;65538;50.798;6.064;2023-06-22T00:43:55;9.63;;;5.90;;
76640;SDS011;65538;50.798;6.064;2023-06-22T00:46:21;7.77;;;6.20;;
76640;SDS011;65538;50.798;6.064;2023-06-22T00:48:47;8.90;;;6.68;;
76640;SDS011;65538;50.798;6.064;2023-06-22T00:51:13;8.90;;;5.32;;
76640;SDS011;65538;50.798;6.064;2023-06-22T00:53:38;8.40;;;6.53;;
76640;SDS011;65538;50.798;6.064;2023-06-22T00:56:04;7.67;;;5.67;;
76640;SDS011;65538;50.798;6.064;2023-06-22T00:58:30;7.82;;;5.55;;
76640;SDS011;65538;50.798;6.064;2023-06-22T01:00:55;9.27;;;6.13;;
76640;SDS011;65538;50.798;6.064;2023-06-22T01:03:21;8.90;;;6.45;;
76640;SDS011;65538;50.798;6.064;2023-06-22T01:05:46;10.30;;;6.97;;
76640;SDS011;65538;50.798;6.064;2023-06-22T01:08:36;10.68;;;7.13;;
76640;SDS011;65538;50.798;6.064;2023-06-22T01:11:07;9.75;;;6.88;;
76640;SDS011;65538;50.798;6.064;2023-06-22T01:16:22;13.52;;;9.88;;
76640;SDS011;65538;50.798;6.064;2023-06-22T01:18:48;11.98;;;7.68;;
76640;SDS011;65538;50.798;6.064;2023-06-22T01:21:16;7.35;;;5.53;;
76640;SDS011;65538;50.798;6.064;2023-06-22T01:26:39;15.13;;;10.27;;
76640;SDS011;65538;50.798;6.064;2023-06-22T01:29:06;12.68;;;9.38;;
76640;SDS011;65538;50.798;6.064;2023-06-22T01:31:33;8.05;;;5.82;;
76640;SDS011;65538;50.798;6.064;2023-06-22T01:34:01;7.45;;;5.40;;
76640;SDS011;65538;50.798;6.064;2023-06-22T01:36:26;7.82;;;5.28;;
76640;SDS011;65538;50.798;6.064;2023-06-22T01:38:52;9.15;;;5.55;;
76640;SDS011;65538;50.798;6.064;2023-06-22T01:41:17;14.88;;;10.15;;
76640;SDS011;65538;50.798;6.064;2023-06-22T01:43:42;12.20;;;7.90;;
76640;SDS011;65538;50.798;6.064;2023-06-22T01:46:08;9.82;;;6.43;;
76640;SDS011;65538;50.798;6.064;2023-06-22T01:48:34;11.10;;;5.90;;
76640;SDS011;65538;50.798;6.064;2023-06-22T01:50:59;8.27;;;5.32;;
76640;SDS011;65538;50.798;6.064;2023-06-22T01:53:25;10.47;;;5.23;;
76640;SDS011;65538;50.798;6.064;2023-06-22T01:55:50;7.28;;;5.63;;
76640;SDS011;65538;50.798;6.064;2023-06-22T01:58:15;7.10;;;5.40;;
76640;SDS011;65538;50.798;6.064;2023-06-22T02:00:42;10.23;;;5.35;;
76640;SDS011;65538;50.798;6.064;2023-06-22T02:03:13;7.03;;;5.10;;
76640;SDS011;65538;50.798;6.064;2023-06-22T02:05:45;9.98;;;7.25;;
76640;SDS011;65538;50.798;6.064;2023-06-22T02:08:13;14.55;;;10.90;;
76640;SDS011;65538;50.798;6.064;2023-06-22T02:10:41;7.97;;;5.68;;
76640;SDS011;65538;50.798;6.064;2023-06-22T02:13:07;23.15;;;14.98;;
76640;SDS011;65538;50.798;6.064;2023-06-22T02:15:33;11.32;;;5.97;;
76640;SDS011;65538;50.798;6.064;2023-06-22T02:17:59;9.18;;;5.93;;
76640;SDS011;65538;50.798;6.064;2023-06-22T02:20:24;8.25;;;5.93;;
76640;SDS011;65538;50.798;6.064;2023-06-22T02:22:49;7.03;;;4.97;;
76640;SDS011;65538;50.798;6.064;2023-06-22T02:25:15;9.67;;;6.37;;
76640;SDS011;65538;50.798;6.064;2023-06-22T02:27:40;9.03;;;6.47;;
76640;SDS011;65538;50.798;6.064;2023-06-22T02:30:06;8.93;;;5.67;;
76640;SDS011;65538;50.798;6.064;2023-06-22T02:32:32;7.03;;;5.13;;
76640;SDS011;65538;50.798;6.064;2023-06-22T02:34:59;10.77;;;5.75;;
76640;SDS011;65538;50.798;6.064;2023-06-22T02:37:24;8.57;;;5.33;;
76640;SDS011;65538;50.798;6.064;2023-06-22T02:39:50;7.65;;;5.40;;
76640;SDS011;65538;50.798;6.064;2023-06-22T02:42:15;6.73;;;5.27;;
76640;SDS011;65538;50.798;6.064;2023-06-22T02:44:40;7.07;;;5.00;;
76640;SDS011;65538;50.798;6.064;2023-06-22T02:47:05;8.73;;;5.33;;
76640;SDS011;65538;50.798;6.064;2023-06-22T02:49:31;8.80;;;5.00;;
76640;SDS011;65538;50.798;6.064;2023-06-22T02:51:56;7.82;;;5.40;;
76640;SDS011;65538;50.798;6.064;2023-06-22T02:54:22;7.28;;;4.93;;
76640;SDS011;65538;50.798;6.064;2023-06-22T02:56:47;7.70;;;4.70;;
76640;SDS011;65538;50.798;6.064;2023-06-22T02:59:13;8.45;;;5.38;;
76640;SDS011;65538;50.798;6.064;2023-06-22T03:01:38;9.97;;;4.93;;
76640;SDS011;65538;50.798;6.064;2023-06-22T03:04:05;7.47;;;5.57;;
76640;SDS011;65538;50.798;6.064;2023-06-22T03:06:30;9.93;;;5.82;;
76640;SDS011;65538;50.798;6.064;2023-06-22T03:08:58;7.63;;;5.00;;
76640;SDS011;65538;50.798;6.064;2023-06-22T03:11:24;11.63;;;5.50;;
76640;SDS011;65538;50.798;6.064;2023-06-22T03:13:49;8.13;;;5.97;;
76640;SDS011;65538;50.798;6.064;2023-06-22T03:16:17;10.77;;;6.35;;
76640;SDS011;65538;50.798;6.064;2023-06-22T03:18:42;8.97;;;5.77;;
76640;SDS011;65538;50.798;6.064;2023-06-22T03:21:07;8.40;;;5.90;;
76640;SDS011;65538;50.798;6.064;2023-06-22T03:23:32;8.30;;;6.17;;
76640;SDS011;65538;50.798;6.064;2023-06-22T03:25:57;9.03;;;5.33;;
76640;SDS011;65538;50.798;6.064;2023-06-22T03:28:22;9.90;;;6.10;;
76640;SDS011;65538;50.798;6.064;2023-06-22T03:30:48;8.48;;;5.95;;
76640;SDS011;65538;50.798;6.064;2023-06-22T03:33:13;9.60;;;5.97;;
76640;SDS011;65538;50.798;6.064;2023-06-22T03:35:38;9.27;;;5.70;;
76640;SDS011;65538;50.798;6.064;2023-06-22T03:38:04;11.30;;;6.30;;
76640;SDS011;65538;50.798;6.064;2023-06-22T03:40:29;10.03;;;6.27;;
76640;SDS011;65538;50.798;6.064;2023-06-22T03:42:55;9.73;;;6.70;;
76640;SDS011;65538;50.798;6.064;2023-06-22T03:45:20;8.65;;;6.50;;
76640;SDS011;65538;50.798;6.064;2023-06-22T03:47:45;14.33;;;7.10;;
76640;SDS011;65538;50.798;6.064;2023-06-22T03:50:10;8.77;;;5.70;;
76640;SDS011;65538;50.798;6.064;2023-06-22T03:52:35;9.10;;;6.47;;
76640;SDS011;65538;50.798;6.064;2023-06-22T03:55:01;10.02;;;6.30;;
76640;SDS011;65538;50.798;6.064;2023-06-22T03:57:26;9.40;;;7.03;;
76640;SDS011;65538;50.798;6.064;2023-06-22T03:59:52;12.37;;;6.20;;
76640;SDS011;65538;50.798;6.064;2023-06-22T04:02:17;10.73;;;6.47;;
76640;SDS011;65538;50.798;6.064;2023-06-22T04:04:42;11.80;;;6.73;;
76640;SDS011;65538;50.798;6.064;2023-06-22T04:07:07;11.27;;;6.87;;
76640;SDS011;65538;50.798;6.064;2023-06-22T04:09:33;11.00;;;7.10;;
76640;SDS011;65538;50.798;6.064;2023-06-22T04:11:58;13.63;;;6.50;;
76640;SDS011;65538;50.798;6.064;2023-06-22T04:14:23;9.77;;;5.60;;
76640;SDS011;65538;50.798;6.064;2023-06-22T04:16:49;9.43;;;6.10;;
76640;SDS011;65538;50.798;6.064;2023-06-22T04:19:14;11.13;;;6.77;;
76640;SDS011;65538;50.798;6.064;2023-06-22T04:21:42;10.63;;;6.47;;
76640;SDS011;65538;50.798;6.064;2023-06-22T04:24:09;7.82;;;5.78;;
76640;SDS011;65538;50.798;6.064;2023-06-22T04:26:34;13.50;;;5.90;;
76640;SDS011;65538;50.798;6.064;2023-06-22T04:29:02;10.38;;;6.22;;
76640;SDS011;65538;50.798;6.064;2023-06-22T04:31:30;11.68;;;6.35;;
76640;SDS011;65538;50.798;6.064;2023-06-22T04:33:57;9.20;;;6.82;;
76640;SDS011;65538;50.798;6.064;2023-06-22T04:36:22;11.95;;;7.13;;
76640;SDS011;65538;50.798;6.064;2023-06-22T04:38:48;11.30;;;6.82;;
76640;SDS011;65538;50.798;6.064;2023-06-22T04:41:14;8.93;;;6.38;;
76640;SDS011;65538;50.798;6.064;2023-06-22T04:43:48;10.32;;;6.60;;
76640;SDS011;65538;50.798;6.064;2023-06-22T04:46:18;10.15;;;6.22;;
76640;SDS011;65538;50.798;6.064;2023-06-22T04:48:46;10.73;;;6.20;;
76640;SDS011;65538;50.798;6.064;2023-06-22T04:51:12;11.63;;;6.88;;
76640;SDS011;65538;50.798;6.064;2023-06-22T04:53:37;11.93;;;6.70;;
76640;SDS011;65538;50.798;6.064;2023-06-22T04:56:02;13.47;;;7.20;;
76640;SDS011;65538;50.798;6.064;2023-06-22T04:58:29;14.23;;;7.45;;
76640;SDS011;65538;50.798;6.064;2023-06-22T05:00:57;12.77;;;7.38;;
76640;SDS011;65538;50.798;6.064;2023-06-22T05:03:24;13.30;;;6.95;;
76640;SDS011;65538;50.798;6.064;2023-06-22T05:05:50;11.52;;;7.35;;
76640;SDS011;65538;50.798;6.064;2023-06-22T05:08:16;9.27;;;6.50;;
76640;SDS011;65538;50.798;6.064;2023-06-22T05:10:41;9.70;;;6.87;;
76640;SDS011;65538;50.798;6.064;2023-06-22T05:13:06;15.67;;;7.40;;
76640;SDS011;65538;50.798;6.064;2023-06-22T05:15:31;10.47;;;6.37;;
76640;SDS011;65538;50.798;6.064;2023-06-22T05:18:01;10.57;;;6.70;;
76640;SDS011;65538;50.798;6.064;2023-06-22T05:20:30;13.43;;;6.63;;
76640;SDS011;65538;50.798;6.064;2023-06-22T05:22:55;11.03;;;7.13;;
76640;SDS011;65538;50.798;6.064;2023-06-22T05:25:20;11.27;;;7.57;;
76640;SDS011;65538;50.798;6.064;2023-06-22T05:27:46;10.17;;;7.20;;
76640;SDS011;65538;50.798;6.064;2023-06-22T05:30:11;14.30;;;7.17;;
76640;SDS011;65538;50.798;6.064;2023-06-22T05:32:36;11.07;;;8.25;;
76640;SDS011;65538;50.798;6.064;2023-06-22T05:35:02;12.57;;;7.03;;
76640;SDS011;65538;50.798;6.064;2023-06-22T05:37:28;10.13;;;6.93;;
76640;SDS011;65538;50.798;6.064;2023-06-22T05:39:53;10.82;;;7.25;;
76640;SDS011;65538;50.798;6.064;2023-06-22T05:42:20;14.20;;;6.60;;
76640;SDS011;65538;50.798;6.064;2023-06-22T05:44:45;12.27;;;7.45;;
76640;SDS011;65538;50.798;6.064;2023-06-22T05:47:12;15.93;;;8.23;;
76640;SDS011;65538;50.798;6.064;2023-06-22T05:49:37;12.13;;;8.13;;
76640;SDS011;65538;50.798;6.064;2023-06-22T05:52:02;12.33;;;8.27;;
76640;SDS011;65538;50.798;6.064;2023-06-22T05:54:28;13.90;;;7.80;;
76640;SDS011;65538;50.798;6.064;2023-06-22T05:56:53;13.07;;;7.32;;
76640;SDS011;65538;50.798;6.064;2023-06-22T05:59:18;13.60;;;8.10;;
76640;SDS011;65538;50.798;6.064;2023-06-22T06:01:44;14.90;;;8.23;;
76640;SDS011;65538;50.798;6.064;2023-06-22T06:04:09;16.07;;;8.33;;
76640;SDS011;65538;50.798;6.064;2023-06-22T06:06:34;11.70;;;7.60;;
76640;SDS011;65538;50.798;6.064;2023-06-22T06:09:00;12.38;;;7.68;;
76640;SDS011;65538;50.798;6.064;2023-06-22T06:11:25;11.38;;;7.78;;
76640;SDS011;65538;50.798;6.064;2023-06-22T06:13:50;16.15;;;7.25;;
76640;SDS011;65538;50.798;6.064;2023-06-22T06:16:16;15.10;;;7.37;;
76640;SDS011;65538;50.798;6.064;2023-06-22T06:18:41;14.37;;;8.00;;
76640;SDS011;65538;50.798;6.064;2023-06-22T06:21:06;13.60;;;7.57;;
76640;SDS011;65538;50.798;6.064;2023-06-22T06:23:38;12.02;;;8.02;;
76640;SDS011;65538;50.798;6.064;2023-06-22T06:26:03;11.23;;;7.17;;
76640;SDS011;65538;50.798;6.064;2023-06-22T06:28:31;16.15;;;8.30;;
76640;SDS011;65538;50.798;6.064;2023-06-22T06:30:57;15.73;;;8.27;;
76640;SDS011;65538;50.798;6.064;2023-06-22T06:33:22;11.47;;;7.90;;
76640;SDS011;65538;50.798;6.064;2023-06-22T06:35:47;15.07;;;8.47;;
76640;SDS011;65538;50.798;6.064;2023-06-22T06:38:12;14.13;;;8.17;;
76640;SDS011;65538;50.798;6.064;2023-06-22T06:40:37;12.00;;;7.63;;
76640;SDS011;65538;50.798;6.064;2023-06-22T06:43:03;17.50;;;8.90;;
76640;SDS011;65538;50.798;6.064;2023-06-22T06:45:28;14.70;;;9.40;;
76640;SDS011;65538;50.798;6.064;2023-06-22T06:47:54;15.30;;;9.90;;
76640;SDS011;65538;50.798;6.064;2023-06-22T06:50:19;14.87;;;8.57;;
76640;SDS011;65538;50.798;6.064;2023-06-22T06:52:44;15.63;;;9.30;;
76640;SDS011;65538;50.798;6.064;2023-06-22T06:55:10;12.77;;;8.80;;
76640;SDS011;65538;50.798;6.064;2023-06-22T06:57:37;14.35;;;9.35;;
76640;SDS011;65538;50.798;6.064;2023-06-22T07:00:02;13.32;;;9.07;;
76640;SDS011;65538;50.798;6.064;2023-06-22T07:02:32;17.02;;;10.25;;
76640;SDS011;65538;50.798;6.064;2023-06-22T07:04:57;14.27;;;8.87;;
76640;SDS011;65538;50.798;6.064;2023-06-22T07:07:23;15.17;;;9.40;;
76640;SDS011;65538;50.798;6.064;2023-06-22T07:09:48;16.10;;;10.48;;
76640;SDS011;65538;50.798;6.064;2023-06-22T07:14:42;13.77;;;10.13;;
76640;SDS011;65538;50.798;6.064;2023-06-22T07:17:07;14.23;;;9.30;;
76640;SDS011;65538;50.798;6.064;2023-06-22T07:19:33;10.80;;;8.10;;
76640;SDS011;65538;50.798;6.064;2023-06-22T07:21:58;17.25;;;8.73;;
76640;SDS011;65538;50.798;6.064;2023-06-22T07:24:23;17.20;;;9.90;;
76640;SDS011;65538;50.798;6.064;2023-06-22T07:26:49;13.73;;;8.70;;
76640;SDS011;65538;50.798;6.064;2023-06-22T07:29:18;14.73;;;9.35;;
76640;SDS011;65538;50.798;6.064;2023-06-22T07:31:45;15.20;;;8.93;;
76640;SDS011;65538;50.798;6.064;2023-06-22T07:34:10;16.17;;;8.23;;
76640;SDS011;65538;50.798;6.064;2023-06-22T07:36:35;13.03;;;8.53;;
76640;SDS011;65538;50.798;6.064;2023-06-22T07:39:01;13.50;;;8.77;;
76640;SDS011;65538;50.798;6.064;2023-06-22T07:41:27;13.57;;;8.25;;
76640;SDS011;65538;50.798;6.064;2023-06-22T07:43:53;14.40;;;8.50;;
76640;SDS011;65538;50.798;6.064;2023-06-22T07:46:18;12.73;;;8.70;;
76640;SDS011;65538;50.798;6.064;2023-06-22T07:48:43;15.80;;;8.37;;
76640;SDS011;65538;50.798;6.064;2023-06-22T07:51:08;15.27;;;9.00;;
76640;SDS011;65538;50.798;6.064;2023-06-22T07:53:34;13.50;;;8.60;;
76640;SDS011;65538;50.798;6.064;2023-06-22T07:56:01;14.60;;;7.85;;
76640;SDS011;65538;50.798;6.064;2023-06-22T07:58:26;14.00;;;8.52;;
76640;SDS011;65538;50.798;6.064;2023-06-22T08:00:51;14.87;;;8.57;;
76640;SDS011;65538;50.798;6.064;2023-06-22T08:03:16;13.53;;;8.57;;
76640;SDS011;65538;50.798;6.064;2023-06-22T08:05:42;14.53;;;9.00;;
76640;SDS011;65538;50.798;6.064;2023-06-22T08:08:07;13.93;;;8.87;;
76640;SDS011;65538;50.798;6.064;2023-06-22T08:10:32;13.83;;;9.10;;
76640;SDS011;65538;50.798;6.064;2023-06-22T08:12:57;14.50;;;9.27;;
76640;SDS011;65538;50.798;6.064;2023-06-22T08:15:23;13.63;;;9.20;;
76640;SDS011;65538;50.798;6.064;2023-06-22T08:17:48;19.43;;;10.47;;
76640;SDS011;65538;50.798;6.064;2023-06-22T08:20:13;13.57;;;9.23;;
76640;SDS011;65538;50.798;6.064;2023-06-22T08:22:39;13.90;;;8.67;;
76640;SDS011;65538;50.798;6.064;2023-06-22T08:25:05;18.25;;;10.70;;
76640;SDS011;65538;50.798;6.064;2023-06-22T08:27:31;14.77;;;10.48;;
76640;SDS011;65538;50.798;6.064;2023-06-22T08:32:25;16.67;;;10.65;;
76640;SDS011;65538;50.798;6.064;2023-06-22T08:34:52;21.13;;;11.50;;
76640;SDS011;65538;50.798;6.064;2023-06-22T08:37:17;14.77;;;9.25;;
76640;SDS011;65538;50.798;6.064;2023-06-22T08:39:42;15.23;;;10.07;;
76640;SDS011;65538;50.798;6.064;2023-06-22T08:42:08;13.73;;;10.93;;
76640;SDS011;65538;50.798;6.064;2023-06-22T08:44:33;21.83;;;11.23;;
76640;SDS011;65538;50.798;6.064;2023-06-22T08:46:58;22.37;;;12.30;;
76640;SDS011;65538;50.798;6.064;2023-06-22T08:49:23;18.27;;;10.93;;
76640;SDS011;65538;50.798;6.064;2023-06-22T08:51:48;17.23;;;10.07;;
76640;SDS011;65538;50.798;6.064;2023-06-22T08:54:14;20.55;;;10.95;;
76640;SDS011;65538;50.798;6.064;2023-06-22T08:56:39;15.02;;;9.63;;
76640;SDS011;65538;50.798;6.064;2023-06-22T08:59:05;17.27;;;10.37;;
76640;SDS011;65538;50.798;6.064;2023-06-22T09:01:32;16.73;;;10.65;;
76640;SDS011;65538;50.798;6.064;2023-06-22T09:03:58;18.57;;;9.83;;
76640;SDS011;65538;50.798;6.064;2023-06-22T09:06:24;12.35;;;9.45;;
76640;SDS011;65538;50.798;6.064;2023-06-22T09:08:52;39.80;;;12.02;;
76640;SDS011;65538;50.798;6.064;2023-06-22T09:11:17;19.80;;;9.57;;
76640;SDS011;65538;50.798;6.064;2023-06-22T09:13:42;17.77;;;9.33;;
76640;SDS011;65538;50.798;6.064;2023-06-22T09:16:08;14.18;;;8.65;;
76640;SDS011;65538;50.798;6.064;2023-06-22T09:18:33;16.17;;;9.52;;
76640;SDS011;65538;50.798;6.064;2023-06-22T09:20:59;14.05;;;9.25;;
76640;SDS011;65538;50.798;6.064;2023-06-22T09:23:24;19.70;;;9.13;;
76640;SDS011;65538;50.798;6.064;2023-06-22T09:25:49;18.30;;;10.27;;
76640;SDS011;65538;50.798;6.064;2023-06-22T09:28:15;16.33;;;9.37;;
76640;SDS011;65538;50.798;6.064;2023-06-22T09:30:40;14.13;;;9.50;;
76640;SDS011;65538;50.798;6.064;2023-06-22T09:33:05;13.82;;;9.43;;
76640;SDS011;65538;50.798;6.064;2023-06-22T09:35:31;17.83;;;9.97;;
76640;SDS011;65538;50.798;6.064;2023-06-22T09:37:56;16.07;;;10.10;;
76640;SDS011;65538;50.798;6.064;2023-06-22T09:40:21;16.17;;;9.87;;
76640;SDS011;65538;50.798;6.064;2023-06-22T09:42:46;14.40;;;9.30;;
76640;SDS011;65538;50.798;6.064;2023-06-22T09:45:11;15.90;;;9.67;;
76640;SDS011;65538;50.798;6.064;2023-06-22T09:47:37;13.77;;;10.43;;
76640;SDS011;65538;50.798;6.064;2023-06-22T09:50:02;17.15;;;10.00;;
76640;SDS011;65538;50.798;6.064;2023-06-22T09:52:27;16.38;;;10.15;;
76640;SDS011;65538;50.798;6.064;2023-06-22T09:54:53;18.47;;;9.57;;
76640;SDS011;65538;50.798;6.064;2023-06-22T09:57:18;15.13;;;10.30;;
76640;SDS011;65538;50.798;6.064;2023-06-22T09:59:43;22.73;;;11.80;;
76640;SDS011;65538;50.798;6.064;2023-06-22T10:02:08;15.50;;;10.10;;
76640;SDS011;65538;50.798;6.064;2023-06-22T10:04:34;14.83;;;9.97;;
76640;SDS011;65538;50.798;6.064;2023-06-22T10:06:59;14.13;;;11.18;;
76640;SDS011;65538;50.798;6.064;2023-06-22T10:09:25;19.73;;;11.52;;
76640;SDS011;65538;50.798;6.064;2023-06-22T10:11:50;18.93;;;12.23;;
76640;SDS011;65538;50.798;6.064;2023-06-22T10:14:15;17.50;;;11.67;;
76640;SDS011;65538;50.798;6.064;2023-06-22T10:16:41;19.70;;;12.95;;
76640;SDS011;65538;50.798;6.064;2023-06-22T10:19:06;18.00;;;12.43;;
76640;SDS011;65538;50.798;6.064;2023-06-22T10:21:32;23.30;;;13.30;;
76640;SDS011;65538;50.798;6.064;2023-06-22T10:23:57;24.15;;;13.13;;
76640;SDS011;65538;50.798;6.064;2023-06-22T10:26:23;20.05;;;12.90;;
76640;SDS011;65538;50.798;6.064;2023-06-22T10:28:49;21.93;;;13.47;;
76640;SDS011;65538;50.798;6.064;2023-06-22T10:31:14;21.10;;;13.70;;
76640;SDS011;65538;50.798;6.064;2023-06-22T10:33:41;23.98;;;15.90;;
76640;SDS011;65538;50.798;6.064;2023-06-22T10:36:09;28.92;;;15.65;;
76640;SDS011;65538;50.798;6.064;2023-06-22T10:38:34;21.60;;;15.60;;
76640;SDS011;65538;50.798;6.064;2023-06-22T10:41:00;21.30;;;15.27;;
76640;SDS011;65538;50.798;6.064;2023-06-22T10:43:25;21.93;;;16.17;;
76640;SDS011;65538;50.798;6.064;2023-06-22T10:45:50;25.63;;;16.63;;
76640;SDS011;65538;50.798;6.064;2023-06-22T10:48:15;24.73;;;16.20;;
76640;SDS011;65538;50.798;6.064;2023-06-22T10:50:40;21.90;;;14.67;;
76640;SDS011;65538;50.798;6.064;2023-06-22T10:53:06;18.13;;;14.67;;
76640;SDS011;65538;50.798;6.064;2023-06-22T10:55:31;25.27;;;15.93;;
76640;SDS011;65538;50.798;6.064;2023-06-22T10:57:56;26.23;;;15.27;;
76640;SDS011;65538;50.798;6.064;2023-06-22T11:00:21;22.63;;;14.67;;
76640;SDS011;65538;50.798;6.064;2023-06-22T11:02:46;22.23;;;14.77;;
76640;SDS011;65538;50.798;6.064;2023-06-22T11:05:12;22.23;;;15.20;;
76640;SDS011;65538;50.798;6.064;2023-06-22T11:07:37;18.83;;;15.17;;
76640;SDS011;65538;50.798;6.064;2023-06-22T11:10:03;24.95;;;15.70;;
76640;SDS011;65538;50.798;6.064;2023-06-22T11:12:29;23.05;;;16.13;;
76640;SDS011;65538;50.798;6.064;2023-06-22T11:14:54;24.73;;;15.30;;
76640;SDS011;65538;50.798;6.064;2023-06-22T11:17:22;19.70;;;15.13;;
76640;SDS011;65538;50.798;6.064;2023-06-22T11:19:47;19.47;;;15.23;;
76640;SDS011;65538;50.798;6.064;2023-06-22T11:22:12;22.03;;;15.73;;
76640;SDS011;65538;50.798;6.064;2023-06-22T11:24:38;20.33;;;15.25;;
76640;SDS011;65538;50.798;6.064;2023-06-22T11:27:03;21.67;;;14.90;;
76640;SDS011;65538;50.798;6.064;2023-06-22T11:29:28;23.60;;;17.48;;
76640;SDS011;65538;50.798;6.064;2023-06-22T11:31:54;24.53;;;16.30;;
76640;SDS011;65538;50.798;6.064;2023-06-22T11:34:19;19.40;;;15.50;;
76640;SDS011;65538;50.798;6.064;2023-06-22T11:36:44;18.37;;;14.53;;
76640;SDS011;65538;50.798;6.064;2023-06-22T11:39:10;17.42;;;15.07;;
76640;SDS011;65538;50.798;6.064;2023-06-22T11:41:35;18.80;;;14.23;;
76640;SDS011;65538;50.798;6.064;2023-06-22T11:44:01;16.47;;;13.13;;
76640;SDS011;65538;50.798;6.064;2023-06-22T11:46:26;16.23;;;12.50;;
76640;SDS011;65538;50.798;6.064;2023-06-22T11:48:51;16.30;;;13.07;;
76640;SDS011;65538;50.798;6.064;2023-06-22T11:51:16;21.37;;;13.63;;
76640;SDS011;65538;50.798;6.064;2023-06-22T11:53:42;18.13;;;13.63;;
76640;SDS011;65538;50.798;6.064;2023-06-22T11:56:07;13.43;;;11.27;;
76640;SDS011;65538;50.798;6.064;2023-06-22T11:58:32;14.43;;;11.07;;
76640;SDS011;65538;50.798;6.064;2023-06-22T12:00:57;14.70;;;11.23;;
76640;SDS011;65538;50.798;6.064;2023-06-22T12:03:22;14.90;;;11.10;;
76640;SDS011;65538;50.798;6.064;2023-06-22T12:05:49;16.03;;;11.23;;
76640;SDS011;65538;50.798;6.064;2023-06-22T12:08:14;14.20;;;10.05;;
76640;SDS011;65538;50.798;6.064;2023-06-22T12:10:40;13.77;;;9.73;;
76640;SDS011;65538;50.798;6.064;2023-06-22T12:13:05;18.50;;;10.57;;
76640;SDS011;65538;50.798;6.064;2023-06-22T12:15:30;14.50;;;12.10;;
76640;SDS011;65538;50.798;6.064;2023-06-22T12:17:55;23.30;;;11.40;;
76640;SDS011;65538;50.798;6.064;2023-06-22T12:20:20;14.07;;;11.27;;
76640;SDS011;65538;50.798;6.064;2023-06-22T12:22:52;15.23;;;12.87;;
76640;SDS011;65538;50.798;6.064;2023-06-22T12:25:23;14.65;;;10.38;;
76640;SDS011;65538;50.798;6.064;2023-06-22T12:27:48;16.83;;;11.77;;
76640;SDS011;65538;50.798;6.064;2023-06-22T12:30:14;16.05;;;11.65;;
76640;SDS011;65538;50.798;6.064;2023-06-22T12:32:39;15.10;;;12.20;;
76640;SDS011;65538;50.798;6.064;2023-06-22T12:35:04;16.00;;;12.00;;
76640;SDS011;65538;50.798;6.064;2023-06-22T12:37:30;16.30;;;11.85;;
76640;SDS011;65538;50.798;6.064;2023-06-22T12:39:56;15.80;;;11.75;;
76640;SDS011;65538;50.798;6.064;2023-06-22T12:42:22;14.67;;;11.17;;
76640;SDS011;65538;50.798;6.064;2023-06-22T12:44:47;18.27;;;11.17;;
76640;SDS011;65538;50.798;6.064;2023-06-22T12:47:12;12.70;;;11.17;;
76640;SDS011;65538;50.798;6.064;2023-06-22T12:49:38;14.48;;;10.70;;
76640;SDS011;65538;50.798;6.064;2023-06-22T12:52:08;14.98;;;11.20;;
76640;SDS011;65538;50.798;6.064;2023-06-22T12:54:33;15.90;;;11.18;;
76640;SDS011;65538;50.798;6.064;2023-06-22T12:56:58;12.27;;;9.73;;
76640;SDS011;65538;50.798;6.064;2023-06-22T12:59:23;14.13;;;10.33;;
76640;SDS011;65538;50.798;6.064;2023-06-22T13:01:49;13.70;;;9.90;;
76640;SDS011;65538;50.798;6.064;2023-06-22T13:04:14;13.30;;;10.03;;
76640;SDS011;65538;50.798;6.064;2023-06-22T13:06:46;13.43;;;9.65;;
76640;SDS011;65538;50.798;6.064;2023-06-22T13:09:13;12.43;;;9.43;;
76640;SDS011;65538;50.798;6.064;2023-06-22T13:11:38;12.55;;;10.00;;
76640;SDS011;65538;50.798;6.064;2023-06-22T13:14:03;14.87;;;10.17;;
76640;SDS011;65538;50.798;6.064;2023-06-22T13:16:29;14.43;;;10.53;;
76640;SDS011;65538;50.798;6.064;2023-06-22T13:18:54;13.93;;;10.60;;
76640;SDS011;65538;50.798;6.064;2023-06-22T13:21:19;26.67;;;13.30;;
76640;SDS011;65538;50.798;6.064;2023-06-22T13:23:44;14.20;;;10.47;;
76640;SDS011;65538;50.798;6.064;2023-06-22T13:26:09;14.97;;;11.17;;
76640;SDS011;65538;50.798;6.064;2023-06-22T13:28:35;16.73;;;12.23;;
76640;SDS011;65538;50.798;6.064;2023-06-22T13:31:00;15.33;;;11.13;;
76640;SDS011;65538;50.798;6.064;2023-06-22T13:33:25;15.10;;;10.77;;
76640;SDS011;65538;50.798;6.064;2023-06-22T13:35:50;17.33;;;12.20;;
76640;SDS011;65538;50.798;6.064;2023-06-22T13:38:15;15.37;;;12.77;;
76640;SDS011;65538;50.798;6.064;2023-06-22T13:40:42;19.58;;;15.27;;
76640;SDS011;65538;50.798;6.064;2023-06-22T13:43:07;21.53;;;16.33;;
76640;SDS011;65538;50.798;6.064;2023-06-22T13:45:32;23.57;;;17.57;;
76640;SDS011;65538;50.798;6.064;2023-06-22T13:47:58;22.47;;;17.50;;
76640;SDS011;65538;50.798;6.064;2023-06-22T13:50:23;23.60;;;17.40;;
76640;SDS011;65538;50.798;6.064;2023-06-22T13:52:48;22.90;;;16.37;;
76640;SDS011;65538;50.798;6.064;2023-06-22T13:55:13;24.10;;;17.77;;
76640;SDS011;65538;50.798;6.064;2023-06-22T13:57:39;22.60;;;17.00;;
76640;SDS011;65538;50.798;6.064;2023-06-22T14:00:05;27.25;;;19.17;;
76640;SDS011;65538;50.798;6.064;2023-06-22T14:02:30;24.90;;;16.55;;
76640;SDS011;65538;50.798;6.064;2023-06-22T14:04:56;24.47;;;18.33;;
76640;SDS011;65538;50.798;6.064;2023-06-22T14:07:21;23.67;;;16.80;;
76640;SDS011;65538;50.798;6.064;2023-06-22T14:09:46;25.73;;;19.83;;
76640;SDS011;65538;50.798;6.064;2023-06-22T14:12:12;23.33;;;17.15;;
76640;SDS011;65538;50.798;6.064;2023-06-22T14:14:37;27.93;;;18.17;;
76640;SDS011;65538;50.798;6.064;2023-06-22T14:17:03;25.40;;;18.43;;
76640;SDS011;65538;50.798;6.064;2023-06-22T14:19:29;27.83;;;19.17;;
76640;SDS011;65538;50.798;6.064;2023-06-22T14:21:54;32.17;;;21.07;;
76640;SDS011;65538;50.798;6.064;2023-06-22T14:24:19;30.87;;;22.93;;
76640;SDS011;65538;50.798;6.064;2023-06-22T14:26:44;31.80;;;25.83;;
76640;SDS011;65538;50.798;6.064;2023-06-22T14:29:09;32.07;;;24.40;;
76640;SDS011;65538;50.798;6.064;2023-06-22T14:31:35;32.57;;;24.03;;
76640;SDS011;65538;50.798;6.064;2023-06-22T14:34:00;31.93;;;24.20;;